Time;durP1;ratioP1;P1;durP2;ratioP2;P2;SDS_P1;SDS_P2;PMS_P1;PMS_P2;Temp;Humidity;BMP_temperature;BMP_pressure;BME280_temperature;BME280_humidity;BME280_pressure;Samples;Min_cycle;Max_cycle;Signal;HPM_P1;HPM_P2
2022/04/12 00:00:25;;;;;;;3.70;0.82;;;19.10;47.40;;;;;;4525662;31;20528;-66
2022/04/12 00:02:51;;;;;;;3.17;0.90;;;19.10;47.40;;;;;;4526136;31;20148;-67
2022/04/12 00:05:18;;;;;;;2.95;0.73;;;19.10;47.30;;;;;;4511486;31;20391;-67
2022/04/12 00:07:44;;;;;;;1.95;0.68;;;19.10;47.40;;;;;;4525988;31;20518;-70
2022/04/12 00:10:13;;;;;;;2.17;0.70;;;19.10;47.40;;;;;;4525860;31;20072;-67
2022/04/12 00:12:39;;;;;;;2.38;0.90;;;19.10;47.40;;;;;;4525743;31;20390;-66
2022/04/12 00:15:07;;;;;;;3.00;0.65;;;19.10;47.40;;;;;;4525529;31;20099;-67
2022/04/12 00:20:19;;;;;;;1.55;0.52;;;19.00;47.30;;;;;;4525971;31;20110;-67
2022/04/12 00:22:45;;;;;;;2.70;0.73;;;19.00;47.30;;;;;;4525717;31;20141;-67
2022/04/12 00:25:11;;;;;;;2.65;0.80;;;19.00;47.30;;;;;;4524909;31;20083;-67
2022/04/12 00:27:39;;;;;;;2.08;0.65;;;19.00;47.30;;;;;;4525221;31;20131;-67
2022/04/12 00:30:06;;;;;;;3.05;0.70;;;19.00;47.30;;;;;;4527256;31;20080;-67
2022/04/12 00:32:33;;;;;;;2.08;0.70;;;19.00;47.30;;;;;;4524789;31;20091;-67
2022/04/12 00:34:59;;;;;;;1.48;0.52;;;19.00;47.30;;;;;;4524666;31;20134;-66
2022/04/12 00:37:26;;;;;;;1.38;0.43;;;19.00;47.30;;;;;;4524716;31;20079;-67
2022/04/12 00:39:53;;;;;;;1.63;0.50;;;19.00;47.30;;;;;;4526697;31;20524;-67
2022/04/12 00:42:19;;;;;;;1.77;0.60;;;19.00;47.30;;;;;;4524618;31;20519;-67
2022/04/12 00:44:45;;;;;;;1.52;0.52;;;18.90;47.30;;;;;;4524850;31;20489;-67
2022/04/12 00:47:11;;;;;;;1.15;0.55;;;18.90;47.30;;;;;;4524782;31;20501;-66
2022/04/12 00:49:38;;;;;;;2.15;0.80;;;18.90;47.30;;;;;;4537878;31;20382;-67
2022/04/12 00:52:05;;;;;;;1.55;0.60;;;18.90;47.30;;;;;;4528727;31;20120;-66
2022/04/12 00:54:35;;;;;;;3.00;0.73;;;18.90;47.30;;;;;;4524004;31;20131;-67
2022/04/12 00:57:03;;;;;;;2.13;0.35;;;18.90;48.20;;;;;;4523854;31;20082;-67
2022/04/12 00:59:31;;;;;;;3.00;0.63;;;18.90;47.30;;;;;;4523510;31;20515;-67
2022/04/12 01:01:57;;;;;;;2.03;0.70;;;18.90;47.30;;;;;;4523277;31;20605;-67
2022/04/12 01:04:23;;;;;;;3.83;0.60;;;18.80;47.20;;;;;;4524020;31;20190;-67
2022/04/12 01:06:51;;;;;;;2.40;0.70;;;18.80;47.20;;;;;;4523693;31;20134;-67
2022/04/12 01:09:17;;;;;;;1.55;0.80;;;18.80;47.20;;;;;;4525482;31;20213;-68
2022/04/12 01:11:48;;;;;;;1.05;0.60;;;18.80;47.20;;;;;;4523719;31;20099;-67
2022/04/12 01:14:17;;;;;;;2.10;0.50;;;18.80;47.20;;;;;;4523460;31;20519;-67
2022/04/12 01:16:43;;;;;;;1.90;0.68;;;18.80;47.20;;;;;;4523535;31;20173;-67
2022/04/12 01:19:09;;;;;;;1.17;0.50;;;18.80;47.20;;;;;;4523724;31;20087;-67
2022/04/12 01:21:51;;;;;;;0.88;0.30;;;18.80;47.30;;;;;;4523345;31;20087;-66
2022/04/12 01:24:18;;;;;;;2.72;0.70;;;18.80;47.20;;;;;;4519536;31;20550;-67
2022/04/12 01:26:44;;;;;;;2.53;0.80;;;18.80;47.20;;;;;;4523416;31;20277;-67
2022/04/12 01:29:10;;;;;;;2.80;0.50;;;18.80;47.20;;;;;;4523607;31;20193;-67
2022/04/12 01:31:36;;;;;;;2.70;0.73;;;18.80;47.20;;;;;;4524295;31;20421;-67
2022/04/12 01:34:02;;;;;;;1.95;0.55;;;18.80;47.20;;;;;;4509914;31;20509;-67
2022/04/12 01:36:27;;;;;;;1.48;0.47;;;18.70;47.20;;;;;;4524455;31;20082;-66
2022/04/12 01:38:53;;;;;;;0.95;0.55;;;18.80;47.30;;;;;;4524308;31;20125;-67
2022/04/12 01:41:20;;;;;;;0.98;0.50;;;18.70;47.20;;;;;;4524176;31;20323;-67
2022/04/12 01:43:46;;;;;;;1.95;0.60;;;18.70;47.10;;;;;;4523715;31;20084;-67
2022/04/12 01:46:12;;;;;;;1.83;0.55;;;18.70;47.10;;;;;;4523678;31;20049;-67
2022/04/12 01:48:37;;;;;;;1.27;0.52;;;18.70;47.20;;;;;;4523734;31;20068;-67
2022/04/12 01:51:03;;;;;;;1.30;0.40;;;18.70;47.10;;;;;;4523593;31;20064;-66
2022/04/12 01:53:29;;;;;;;1.17;0.40;;;18.70;47.10;;;;;;4509059;31;20099;-67
2022/04/12 01:55:55;;;;;;;0.98;0.60;;;18.70;47.10;;;;;;4528774;31;20074;-67
2022/04/12 01:58:21;;;;;;;1.23;0.52;;;18.70;47.10;;;;;;4507750;31;20155;-68
2022/04/12 02:00:47;;;;;;;1.23;0.50;;;18.60;47.10;;;;;;4517144;31;20210;-67
2022/04/12 02:03:13;;;;;;;1.48;0.60;;;18.60;47.10;;;;;;4531062;31;20086;-67
2022/04/12 02:05:39;;;;;;;0.88;0.40;;;18.60;47.10;;;;;;4529880;31;20127;-67
2022/04/12 02:08:06;;;;;;;1.25;0.50;;;18.60;47.10;;;;;;4539864;31;20200;-65
2022/04/12 02:10:31;;;;;;;2.88;0.50;;;18.60;47.10;;;;;;4540244;31;20484;-67
2022/04/12 02:12:57;;;;;;;1.63;0.50;;;18.60;47.00;;;;;;4540026;31;20068;-65
2022/04/12 02:15:27;;;;;;;1.63;0.60;;;18.60;47.00;;;;;;4540218;31;20111;-67
2022/04/12 02:17:53;;;;;;;0.93;0.50;;;18.60;47.00;;;;;;4539756;31;20485;-67
2022/04/12 02:20:18;;;;;;;1.10;0.60;;;18.50;47.00;;;;;;4539911;31;20169;-67
2022/04/12 02:22:44;;;;;;;1.27;0.38;;;18.60;47.00;;;;;;4540230;31;20148;-66
2022/04/12 02:25:10;;;;;;;1.40;0.50;;;18.60;47.00;;;;;;4533357;31;20194;-67
2022/04/12 02:27:37;;;;;;;1.65;0.50;;;18.60;47.00;;;;;;4539938;31;20225;-66
2022/04/12 02:30:05;;;;;;;1.70;0.55;;;18.60;47.00;;;;;;4525460;31;20091;-67
2022/04/12 02:32:32;;;;;;;1.55;0.40;;;18.60;47.00;;;;;;4539467;31;20122;-67
2022/04/12 02:35:00;;;;;;;0.93;0.40;;;18.50;46.90;;;;;;4540175;31;20092;-66
2022/04/12 02:37:27;;;;;;;2.05;0.60;;;18.50;46.90;;;;;;4539967;31;20076;-66
2022/04/12 02:39:53;;;;;;;1.73;0.40;;;18.50;47.00;;;;;;4539543;31;20080;-67
2022/04/12 02:42:20;;;;;;;0.80;0.30;;;18.50;47.00;;;;;;4539454;31;20076;-67
2022/04/12 02:44:46;;;;;;;2.92;0.30;;;18.50;46.90;;;;;;4525057;31;20375;-66
2022/04/12 02:47:12;;;;;;;0.95;0.57;;;18.50;47.00;;;;;;4539708;31;20098;-67
2022/04/12 02:49:38;;;;;;;1.92;0.60;;;18.50;46.90;;;;;;4539740;31;20076;-67
2022/04/12 02:52:04;;;;;;;1.00;0.38;;;18.50;46.90;;;;;;4539387;31;20126;-66
2022/04/12 02:54:30;;;;;;;1.65;0.50;;;18.50;46.90;;;;;;4539795;31;20131;-67
2022/04/12 02:56:56;;;;;;;1.95;0.55;;;18.50;46.90;;;;;;4539624;31;20206;-67
2022/04/12 02:59:22;;;;;;;0.85;0.50;;;18.50;46.90;;;;;;4539121;31;20087;-67
2022/04/12 03:01:48;;;;;;;1.02;0.50;;;18.50;46.90;;;;;;4539372;31;20088;-66
2022/04/12 03:04:13;;;;;;;0.95;0.40;;;18.50;46.90;;;;;;4539562;31;20076;-67
2022/04/12 03:06:39;;;;;;;1.50;0.52;;;18.50;46.90;;;;;;4539894;31;20096;-67
2022/04/12 03:09:05;;;;;;;1.27;0.50;;;18.40;46.90;;;;;;4524892;31;20064;-66
2022/04/12 03:11:31;;;;;;;2.67;0.65;;;18.40;46.90;;;;;;4539426;31;20150;-67
2022/04/12 03:13:56;;;;;;;0.80;0.50;;;18.40;46.80;;;;;;4541830;31;20086;-67
2022/04/12 03:16:22;;;;;;;0.60;0.30;;;18.40;46.80;;;;;;4542673;31;20161;-67
2022/04/12 03:18:48;;;;;;;1.27;0.68;;;18.40;46.90;;;;;;4542940;31;20080;-67
2022/04/12 03:21:14;;;;;;;0.90;0.40;;;18.40;46.90;;;;;;4542889;31;20491;-67
2022/04/12 03:23:39;;;;;;;0.90;0.40;;;18.40;46.90;;;;;;4542717;31;20216;-66
2022/04/12 03:26:05;;;;;;;0.77;0.32;;;18.40;46.90;;;;;;4537563;31;20130;-66
2022/04/12 03:28:33;;;;;;;1.65;0.52;;;18.40;46.90;;;;;;4526067;31;20083;-67
2022/04/12 03:30:59;;;;;;;0.75;0.28;;;18.40;46.90;;;;;;4526107;31;20182;-66
2022/04/12 03:33:25;;;;;;;1.55;0.50;;;18.40;47.00;;;;;;4527071;31;20096;-67
2022/04/12 03:35:51;;;;;;;0.98;0.43;;;18.40;47.00;;;;;;4511946;31;20497;-67
2022/04/12 03:38:17;;;;;;;1.20;0.73;;;18.40;47.00;;;;;;4525961;31;20076;-67
2022/04/12 03:40:46;;;;;;;0.60;0.32;;;18.40;47.00;;;;;;4512013;31;20268;-66
2022/04/12 03:43:12;;;;;;;1.33;0.50;;;18.40;47.10;;;;;;4526465;31;20115;-67
2022/04/12 03:45:38;;;;;;;1.17;0.40;;;18.30;47.00;;;;;;4526446;31;20214;-66
2022/04/12 03:48:06;;;;;;;1.00;0.45;;;18.30;47.00;;;;;;4526372;31;20202;-67
2022/04/12 03:50:34;;;;;;;0.85;0.38;;;18.30;47.10;;;;;;4525498;31;20100;-67
2022/04/12 03:53:01;;;;;;;0.47;0.35;;;18.30;47.10;;;;;;4525358;31;20488;-67
2022/04/12 03:55:30;;;;;;;1.17;0.60;;;18.30;47.20;;;;;;4525488;31;20068;-67
2022/04/12 03:58:01;;;;;;;2.67;0.50;;;18.30;47.20;;;;;;4528733;31;20080;-67
2022/04/12 04:00:28;;;;;;;1.98;0.50;;;18.30;47.20;;;;;;4527014;31;20186;-67
2022/04/12 04:02:56;;;;;;;1.85;0.40;;;18.30;47.10;;;;;;4541550;31;20080;-67
2022/04/12 04:05:22;;;;;;;0.50;0.30;;;18.30;47.10;;;;;;4531511;31;20391;-67
2022/04/12 04:07:49;;;;;;;1.52;0.32;;;18.30;47.10;;;;;;4524563;31;20134;-67
2022/04/12 04:10:15;;;;;;;0.82;0.45;;;18.30;47.10;;;;;;4524299;31;20168;-67
2022/04/12 04:12:42;;;;;;;0.57;0.40;;;18.20;47.00;;;;;;4524471;31;20161;-67
2022/04/12 04:15:12;;;;;;;1.33;0.35;;;18.20;47.00;;;;;;4524503;31;20392;-67
2022/04/12 04:17:42;;;;;;;1.25;0.50;;;18.30;47.10;;;;;;4524568;31;20068;-67
2022/04/12 04:20:10;;;;;;;0.60;0.47;;;18.20;47.00;;;;;;4525000;31;20233;-67
2022/04/12 04:22:36;;;;;;;0.95;0.40;;;18.20;48.00;;;;;;4525460;31;20084;-67
2022/04/12 04:25:02;;;;;;;0.22;0.22;;;18.20;47.00;;;;;;4525227;31;20052;-67
2022/04/12 04:27:29;;;;;;;0.90;0.50;;;18.20;47.00;;;;;;4510970;31;20221;-67
2022/04/12 04:29:56;;;;;;;1.35;0.50;;;18.20;47.00;;;;;;4525885;31;20084;-67
2022/04/12 04:32:22;;;;;;;1.80;0.40;;;18.20;47.00;;;;;;4525678;31;20481;-67
2022/04/12 04:34:48;;;;;;;1.15;0.57;;;18.20;47.00;;;;;;4511225;31;20087;-67
2022/04/12 04:37:14;;;;;;;1.13;0.47;;;18.20;47.00;;;;;;4511103;31;20072;-67
2022/04/12 04:39:40;;;;;;;1.65;0.40;;;18.20;47.00;;;;;;4510844;31;20132;-66
2022/04/12 04:42:06;;;;;;;2.00;0.68;;;18.20;47.00;;;;;;4525153;31;20083;-66
2022/04/12 04:44:32;;;;;;;0.60;0.30;;;18.20;47.00;;;;;;4525099;31;20088;-67
2022/04/12 04:46:58;;;;;;;0.57;0.38;;;18.20;47.00;;;;;;4525808;31;20071;-67
2022/04/12 04:49:25;;;;;;;1.35;0.50;;;18.10;46.90;;;;;;4525127;31;20212;-67
2022/04/12 04:51:50;;;;;;;1.00;0.40;;;18.10;46.90;;;;;;4525558;31;20080;-67
2022/04/12 04:54:16;;;;;;;1.20;0.40;;;18.10;46.90;;;;;;4510735;31;20080;-67
2022/04/12 04:56:42;;;;;;;0.80;0.50;;;18.10;46.90;;;;;;4525238;31;20131;-66
2022/04/12 04:59:10;;;;;;;0.40;0.30;;;18.10;46.90;;;;;;4507930;31;20072;-67
2022/04/12 05:01:36;;;;;;;0.70;0.50;;;18.10;46.90;;;;;;4508919;31;20099;-67
2022/04/12 05:04:02;;;;;;;0.55;0.40;;;18.10;47.00;;;;;;4509140;31;20080;-67
2022/04/12 05:06:28;;;;;;;1.17;0.40;;;18.10;46.90;;;;;;4509136;31;20238;-67
2022/04/12 05:08:53;;;;;;;0.70;0.40;;;18.10;46.90;;;;;;4508726;31;20472;-67
2022/04/12 05:11:19;;;;;;;1.27;0.43;;;18.10;46.90;;;;;;4508735;31;20182;-67
2022/04/12 05:13:45;;;;;;;0.85;0.60;;;18.10;47.00;;;;;;4509191;31;20131;-67
2022/04/12 05:16:11;;;;;;;1.00;0.50;;;18.10;46.90;;;;;;4508691;31;20202;-67
2022/04/12 05:18:37;;;;;;;0.75;0.40;;;18.10;46.90;;;;;;4507630;31;20510;-67
2022/04/12 05:21:03;;;;;;;1.40;0.40;;;18.00;46.90;;;;;;4508575;31;20530;-67
2022/04/12 05:23:28;;;;;;;1.83;0.50;;;18.00;46.90;;;;;;4508952;31;20470;-67
2022/04/12 05:25:55;;;;;;;1.20;0.40;;;18.00;46.90;;;;;;4508800;31;20586;-67
2022/04/12 05:28:21;;;;;;;1.15;0.70;;;18.00;46.90;;;;;;4508736;31;20150;-67
2022/04/12 05:30:48;;;;;;;0.65;0.40;;;18.00;46.90;;;;;;4507721;31;20088;-67
2022/04/12 05:33:14;;;;;;;0.73;0.50;;;18.00;46.90;;;;;;4508599;31;20095;-67
2022/04/12 05:35:40;;;;;;;1.02;0.30;;;18.00;47.00;;;;;;4508610;31;20186;-66
2022/04/12 05:38:06;;;;;;;1.15;0.35;;;18.00;46.90;;;;;;4508687;31;20073;-67
2022/04/12 05:40:33;;;;;;;0.68;0.40;;;18.00;46.90;;;;;;4508367;31;20487;-67
2022/04/12 05:42:59;;;;;;;0.95;0.40;;;18.00;47.00;;;;;;4507484;31;20097;-67
2022/04/12 05:45:26;;;;;;;0.63;0.52;;;18.00;46.90;;;;;;4514328;31;20107;-66
2022/04/12 05:47:55;;;;;;;0.80;0.40;;;18.00;46.90;;;;;;4523758;31;20073;-66
2022/04/12 05:50:24;;;;;;;1.27;0.40;;;18.00;47.00;;;;;;4524572;31;20197;-67
2022/04/12 05:52:50;;;;;;;0.93;0.40;;;18.00;47.00;;;;;;4524217;31;20104;-67
2022/04/12 05:55:21;;;;;;;0.57;0.35;;;18.00;47.00;;;;;;4524529;31;20077;-67
2022/04/12 05:57:52;;;;;;;1.25;0.43;;;18.00;47.00;;;;;;4526836;31;20085;-67
2022/04/12 06:00:20;;;;;;;0.40;0.40;;;18.00;47.00;;;;;;4540554;31;20083;-67
2022/04/12 06:02:50;;;;;;;1.25;0.70;;;18.00;47.00;;;;;;4540287;31;20072;-67
2022/04/12 06:05:18;;;;;;;1.25;0.40;;;18.00;46.90;;;;;;4525898;31;20493;-67
2022/04/12 06:07:44;;;;;;;0.70;0.40;;;17.90;46.90;;;;;;4539926;31;20214;-66
2022/04/12 06:10:12;;;;;;;0.77;0.40;;;17.90;47.80;;;;;;4539860;31;20649;-67
2022/04/12 06:12:38;;;;;;;1.45;0.52;;;17.90;46.90;;;;;;4540226;31;20160;-66
2022/04/12 06:15:06;;;;;;;0.80;0.30;;;17.90;46.90;;;;;;4540312;31;20090;-67
2022/04/12 06:17:34;;;;;;;1.35;0.60;;;17.90;46.90;;;;;;4540295;31;20420;-66
2022/04/12 06:20:08;;;;;;;0.85;0.50;;;17.90;46.80;;;;;;4540280;31;20123;-66
2022/04/12 06:22:35;;;;;;;1.02;0.50;;;17.90;46.90;;;;;;4539809;31;20099;-66
2022/04/12 06:25:01;;;;;;;2.13;0.70;;;17.90;46.90;;;;;;4539633;31;20156;-66
2022/04/12 06:27:33;;;;;;;1.05;0.50;;;17.90;46.80;;;;;;4525694;31;20076;-67
2022/04/12 06:30:11;;;;;;;1.50;0.63;;;17.90;46.90;;;;;;4540000;31;20122;-66
2022/04/12 06:32:37;;;;;;;0.95;0.50;;;17.90;46.90;;;;;;4539924;31;20072;-67
2022/04/12 06:35:05;;;;;;;0.63;0.50;;;17.90;46.90;;;;;;4539853;31;20107;-67
2022/04/12 06:37:32;;;;;;;1.17;0.57;;;17.90;46.90;;;;;;4539770;31;20080;-67
2022/04/12 06:39:58;;;;;;;0.75;0.40;;;17.90;46.90;;;;;;4539542;31;20079;-67
2022/04/12 06:42:25;;;;;;;0.63;0.43;;;17.90;47.10;;;;;;4539898;31;20092;-67
2022/04/12 06:44:51;;;;;;;0.93;0.50;;;17.90;47.00;;;;;;4539981;31;20076;-67
2022/04/12 06:47:18;;;;;;;0.60;0.50;;;17.80;46.90;;;;;;4539275;31;20406;-67
2022/04/12 06:49:49;;;;;;;0.90;0.60;;;17.80;46.90;;;;;;4525263;31;20083;-67
2022/04/12 06:52:16;;;;;;;0.98;0.50;;;17.80;46.90;;;;;;4539205;31;20076;-66
2022/04/12 06:54:42;;;;;;;1.10;0.68;;;17.80;46.90;;;;;;4539283;31;20526;-66
2022/04/12 06:57:08;;;;;;;0.90;0.60;;;17.80;46.90;;;;;;4539905;31;20072;-66
2022/04/12 06:59:34;;;;;;;1.00;0.47;;;17.80;46.90;;;;;;4525176;31;20203;-66
2022/04/12 07:02:01;;;;;;;2.08;0.50;;;17.80;46.90;;;;;;4539555;31;20210;-67
2022/04/12 07:04:28;;;;;;;1.05;0.45;;;17.80;46.90;;;;;;4539635;31;20064;-67
2022/04/12 07:06:54;;;;;;;0.68;0.45;;;17.80;47.00;;;;;;4539575;31;20440;-66
2022/04/12 07:09:20;;;;;;;0.80;0.45;;;17.80;47.00;;;;;;4511229;31;20174;-67
2022/04/12 07:11:50;;;;;;;2.38;0.52;;;17.80;47.00;;;;;;4539512;31;20197;-67
2022/04/12 07:14:16;;;;;;;3.38;0.90;;;17.90;47.10;;;;;;4539417;31;20072;-68
2022/04/12 07:16:42;;;;;;;2.28;1.10;;;17.80;47.00;;;;;;4539195;31;20515;-67
2022/04/12 07:19:08;;;;;;;3.80;1.83;;;17.80;46.80;;;;;;4524718;31;20072;-67
2022/04/12 07:21:34;;;;;;;3.58;1.52;;;17.80;46.70;;;;;;4539694;31;20150;-67
2022/04/12 07:24:00;;;;;;;3.15;1.40;;;17.80;46.70;;;;;;4524623;31;20123;-67
2022/04/12 07:26:26;;;;;;;8.93;1.50;;;17.80;47.00;;;;;;4524597;31;20157;-67
2022/04/12 07:28:52;;;;;;;1.92;1.48;;;17.80;47.20;;;;;;4539160;31;20116;-67
2022/04/12 07:31:18;;;;;;;3.83;1.52;;;17.80;47.40;;;;;;4524554;31;20103;-67
2022/04/12 07:33:45;;;;;;;4.57;1.40;;;17.80;47.60;;;;;;4538851;31;20076;-67
2022/04/12 07:36:11;;;;;;;1.77;0.98;;;17.80;47.80;;;;;;4524769;31;20090;-67
2022/04/12 07:38:37;;;;;;;1.67;1.10;;;17.80;47.90;;;;;;4538893;31;20052;-67
2022/04/12 07:41:04;;;;;;;3.75;0.85;;;17.80;48.00;;;;;;4539436;31;20088;-67
2022/04/12 07:43:30;;;;;;;4.22;1.02;;;17.80;47.90;;;;;;4525608;31;20282;-67
2022/04/12 07:45:56;;;;;;;1.90;0.90;;;17.80;48.00;;;;;;4522410;31;20142;-67
2022/04/12 07:48:23;;;;;;;2.90;1.08;;;17.90;48.00;;;;;;4522093;31;20230;-68
2022/04/12 07:50:49;;;;;;;7.22;1.33;;;17.90;48.00;;;;;;4507947;31;20157;-67
2022/04/12 07:53:15;;;;;;;2.58;1.10;;;18.00;48.00;;;;;;4522247;31;20076;-67
2022/04/12 07:55:41;;;;;;;2.65;1.10;;;18.10;47.90;;;;;;4500624;31;20071;-67
2022/04/12 07:58:07;;;;;;;4.40;1.00;;;18.20;47.60;;;;;;4538182;31;20084;-68
2022/04/12 08:00:33;;;;;;;2.58;1.10;;;18.30;47.40;;;;;;4538445;31;20075;-68
2022/04/12 08:02:59;;;;;;;3.15;0.98;;;18.50;47.30;;;;;;4525224;31;20116;-67
2022/04/12 08:05:24;;;;;;;1.52;1.02;;;18.60;47.10;;;;;;4511843;31;20393;-67
2022/04/12 08:07:50;;;;;;;4.30;0.93;;;18.70;46.80;;;;;;4526534;31;20160;-67
2022/04/12 08:10:17;;;;;;;4.32;1.13;;;18.80;46.60;;;;;;4540240;31;20209;-68
2022/04/12 08:12:44;;;;;;;1.75;0.80;;;19.00;46.40;;;;;;4540059;31;20072;-68
2022/04/12 08:15:11;;;;;;;2.03;1.00;;;19.10;46.20;;;;;;4525391;31;20574;-67
2022/04/12 08:17:37;;;;;;;3.35;0.80;;;19.20;45.90;;;;;;4526492;31;20075;-67
2022/04/12 08:20:08;;;;;;;3.33;0.90;;;19.40;45.70;;;;;;4541403;31;20074;-68
2022/04/12 08:22:34;;;;;;;1.58;1.10;;;19.50;45.40;;;;;;4541334;31;20088;-67
2022/04/12 08:25:00;;;;;;;2.90;1.40;;;19.60;45.00;;;;;;4541133;31;20123;-67
2022/04/12 08:27:26;;;;;;;2.88;1.75;;;19.70;44.50;;;;;;4526904;31;20072;-68
2022/04/12 08:29:53;;;;;;;2.80;1.75;;;19.80;44.10;;;;;;4541803;31;20618;-68
2022/04/12 08:32:19;;;;;;;2.50;1.80;;;19.80;43.70;;;;;;4526506;31;20165;-68
2022/04/12 08:34:45;;;;;;;4.07;1.85;;;19.90;43.50;;;;;;4525359;31;20080;-67
2022/04/12 08:37:11;;;;;;;3.90;1.83;;;19.90;43.40;;;;;;4523576;31;20064;-68
2022/04/12 08:39:38;;;;;;;3.72;1.55;;;19.90;43.30;;;;;;4524711;31;20068;-67
2022/04/12 08:42:05;;;;;;;5.70;2.20;;;19.90;43.50;;;;;;4510680;31;20069;-67
2022/04/12 08:44:32;;;;;;;8.82;1.88;;;19.90;43.40;;;;;;4510721;31;20105;-67
2022/04/12 08:47:02;;;;;;;4.88;1.50;;;19.80;43.70;;;;;;4524795;31;20141;-67
2022/04/12 08:49:29;;;;;;;3.85;2.00;;;19.80;43.80;;;;;;4524613;31;20079;-67
2022/04/12 08:51:55;;;;;;;4.55;2.00;;;19.80;44.30;;;;;;4524670;31;20505;-67
2022/04/12 08:54:22;;;;;;;3.85;1.75;;;19.70;43.80;;;;;;4524784;31;20092;-68
2022/04/12 08:56:51;;;;;;;2.55;1.52;;;19.70;44.00;;;;;;4524716;31;20108;-68
2022/04/12 08:59:18;;;;;;;3.00;1.60;;;19.60;44.10;;;;;;4503566;31;20177;-68
2022/04/12 09:01:48;;;;;;;4.68;1.80;;;19.60;44.30;;;;;;4492997;31;20202;-67
2022/04/12 09:04:14;;;;;;;5.32;2.10;;;19.50;44.40;;;;;;4492977;31;20169;-66
2022/04/12 09:06:50;;;;;;;3.83;1.80;;;19.50;44.50;;;;;;4491596;31;20124;-65
2022/04/12 09:09:19;;;;;;;2.53;1.60;;;19.40;44.60;;;;;;4492813;31;20597;-65
2022/04/12 09:12:09;;;;;;;8.52;1.70;;;19.40;44.60;;;;;;4492891;31;20472;-66
2022/04/12 09:14:37;;;;;;;7.43;1.70;;;19.30;44.80;;;;;;4492813;31;20077;-66
2022/04/12 09:17:09;;;;;;;3.13;1.80;;;19.30;44.80;;;;;;4492509;31;20158;-66
2022/04/12 09:19:43;;;;;;;3.25;1.80;;;19.30;44.90;;;;;;4492640;31;20194;-65
2022/04/12 09:22:23;;;;;;;2.40;1.90;;;19.30;44.80;;;;;;4492793;31;20185;-66
2022/04/12 09:24:50;;;;;;;5.00;2.63;;;19.20;44.80;;;;;;4492617;31;20210;-66
2022/04/12 09:27:19;;;;;;;3.60;2.10;;;19.20;44.70;;;;;;4477683;31;20466;-66
2022/04/12 09:29:50;;;;;;;3.45;2.05;;;19.20;44.60;;;;;;4497568;31;20511;-66
2022/04/12 09:32:19;;;;;;;4.10;1.80;;;19.10;44.90;;;;;;4490835;31;20073;-66
2022/04/12 09:34:45;;;;;;;2.90;1.67;;;19.10;45.10;;;;;;4492201;31;20617;-66
2022/04/12 09:37:23;;;;;;;5.22;1.90;;;19.10;45.20;;;;;;4491713;31;20242;-66
2022/04/12 09:39:58;;;;;;;4.22;1.98;;;19.00;45.30;;;;;;4491547;31;20092;-65
2022/04/12 09:42:44;;;;;;;3.42;1.90;;;19.00;45.30;;;;;;4491592;31;20081;-66
2022/04/12 09:45:16;;;;;;;4.40;2.40;;;19.00;45.40;;;;;;4491645;31;20436;-68
2022/04/12 09:47:42;;;;;;;5.93;2.20;;;19.00;45.30;;;;;;4492076;31;20093;-67
2022/04/12 09:50:10;;;;;;;5.00;2.65;;;19.00;45.30;;;;;;4492206;31;20083;-67
2022/04/12 09:52:37;;;;;;;3.42;2.35;;;19.00;45.30;;;;;;4492167;31;20085;-67
2022/04/12 09:55:04;;;;;;;3.47;2.05;;;19.00;45.20;;;;;;4492269;31;20088;-68
2022/04/12 09:57:31;;;;;;;5.47;3.25;;;19.00;45.30;;;;;;4491893;31;20120;-67
2022/04/12 09:59:58;;;;;;;5.15;2.90;;;19.00;45.30;;;;;;4508586;31;20099;-67
2022/04/12 10:02:25;;;;;;;3.70;2.40;;;19.00;45.10;;;;;;4523620;31;20190;-67
2022/04/12 10:04:54;;;;;;;3.70;2.72;;;19.00;45.10;;;;;;4523898;31;20084;-67
2022/04/12 10:07:22;;;;;;;6.97;3.35;;;19.00;45.10;;;;;;4523539;31;20133;-67
2022/04/12 10:09:52;;;;;;;4.10;2.35;;;19.00;45.10;;;;;;4523290;31;20072;-67
2022/04/12 10:12:19;;;;;;;5.72;3.15;;;19.00;45.20;;;;;;4523800;31;20068;-67
2022/04/12 10:14:45;;;;;;;2.78;2.22;;;19.00;45.20;;;;;;4523609;31;20060;-67
2022/04/12 10:17:13;;;;;;;4.80;2.50;;;19.00;45.30;;;;;;4523180;31;20594;-67
2022/04/12 10:19:40;;;;;;;5.35;3.17;;;19.00;45.40;;;;;;4522872;31;20242;-67
2022/04/12 10:22:06;;;;;;;5.03;3.60;;;19.00;45.40;;;;;;4522169;31;20632;-67
2022/04/12 10:24:33;;;;;;;5.00;3.05;;;19.00;45.40;;;;;;4522826;31;20083;-67
2022/04/12 10:26:59;;;;;;;5.78;2.90;;;19.00;45.40;;;;;;4522959;31;20094;-67
2022/04/12 10:29:26;;;;;;;4.78;2.83;;;19.00;45.40;;;;;;4524918;31;20095;-67
2022/04/12 10:31:57;;;;;;;5.32;3.10;;;19.00;45.50;;;;;;4523547;31;20439;-67
2022/04/12 10:34:23;;;;;;;3.50;2.97;;;19.00;45.50;;;;;;4523178;31;20086;-70
2022/04/12 10:36:55;;;;;;;4.88;3.33;;;19.00;45.50;;;;;;4522592;31;20080;-67
2022/04/12 10:39:31;;;;;;;22.60;3.90;;;19.00;45.40;;;;;;4523587;31;20142;-67
2022/04/12 10:41:59;;;;;;;6.00;3.75;;;19.00;45.40;;;;;;4523280;31;20083;-71
2022/04/12 10:44:25;;;;;;;5.57;3.72;;;19.00;45.30;;;;;;4523141;31;20218;-68
2022/04/12 10:46:52;;;;;;;5.15;3.70;;;19.00;45.30;;;;;;4508773;31;20072;-67
2022/04/12 10:49:20;;;;;;;6.40;4.30;;;19.00;45.30;;;;;;4523236;31;20523;-68
2022/04/12 10:51:56;;;;;;;6.47;3.65;;;19.00;45.20;;;;;;4522918;31;20084;-68
2022/04/12 10:54:30;;;;;;;7.13;4.55;;;19.00;45.20;;;;;;4521521;31;20506;-68
2022/04/12 10:57:18;;;;;;;7.30;3.70;;;19.00;45.10;;;;;;4523076;31;20095;-67
2022/04/12 11:00:10;;;;;;;6.38;4.93;;;19.00;45.40;;;;;;4536757;31;20206;-68
2022/04/12 11:02:54;;;;;;;7.90;4.65;;;19.00;45.10;;;;;;4539399;31;20080;-68
2022/04/12 11:05:39;;;;;;;7.38;4.65;;;19.00;45.40;;;;;;4524951;31;20115;-68
2022/04/12 11:08:14;;;;;;;7.93;4.75;;;19.00;45.50;;;;;;4539493;31;20082;-68
2022/04/12 11:10:54;;;;;;;5.53;4.03;;;19.10;45.50;;;;;;4539499;31;20413;-68
2022/04/12 11:13:22;;;;;;;7.47;3.97;;;19.10;45.60;;;;;;4539291;31;20501;-68
2022/04/12 11:15:55;;;;;;;9.40;4.35;;;19.20;45.70;;;;;;4524953;31;20214;-68
2022/04/12 11:18:21;;;;;;;9.68;4.00;;;19.20;45.80;;;;;;4539403;31;20251;-68
2022/04/12 11:21:02;;;;;;;7.72;4.03;;;19.20;45.60;;;;;;4539222;31;20127;-68
2022/04/12 11:23:50;;;;;;;7.30;3.75;;;19.30;45.80;;;;;;4539481;31;20083;-68
2022/04/12 11:26:37;;;;;;;10.68;3.75;;;19.30;45.70;;;;;;4525256;31;20079;-69
2022/04/12 11:29:08;;;;;;;7.82;4.07;;;19.40;45.70;;;;;;4539096;31;20109;-68
2022/04/12 11:31:39;;;;;;;8.95;4.40;;;19.40;45.60;;;;;;4524774;31;20091;-69
2022/04/12 11:34:06;;;;;;;7.00;3.75;;;19.40;45.40;;;;;;4541008;31;20057;-68
2022/04/12 11:36:33;;;;;;;9.60;4.50;;;19.40;45.30;;;;;;4528127;31;20142;-67
2022/04/12 11:38:59;;;;;;;8.82;4.65;;;19.40;45.20;;;;;;4542176;31;20482;-68
2022/04/12 11:41:27;;;;;;;6.28;4.22;;;19.40;45.10;;;;;;4542354;31;20177;-68
2022/04/12 11:44:01;;;;;;;7.38;5.05;;;19.40;44.90;;;;;;4542019;31;20096;-68
2022/04/12 11:46:28;;;;;;;;;;;19.40;44.80;;;;;;4542855;31;20487;-67
2022/04/12 11:49:06;;;;;;;5.57;4.10;;;19.40;44.80;;;;;;4542357;31;19999;-72
2022/04/12 11:51:44;;;;;;;7.43;4.03;;;19.50;44.90;;;;;;4542248;31;20120;-68
2022/04/12 11:54:26;;;;;;;5.35;4.00;;;19.50;45.00;;;;;;4514490;31;20111;-68
2022/04/12 11:57:07;;;;;;;6.25;4.15;;;19.50;45.10;;;;;;4541987;31;20092;-68
2022/04/12 11:59:36;;;;;;;7.43;4.68;;;19.50;45.00;;;;;;4540027;31;20517;-68
2022/04/12 12:02:04;;;;;;;5.93;3.95;;;19.50;45.00;;;;;;4540844;31;20164;-69
2022/04/12 12:04:32;;;;;;;8.27;4.05;;;19.50;45.30;;;;;;4533634;31;20083;-68
2022/04/12 12:07:02;;;;;;;8.20;4.20;;;19.50;45.60;;;;;;4535114;31;20076;-68
2022/04/12 12:09:29;;;;;;;6.30;4.40;;;19.50;45.80;;;;;;4536753;31;20079;-68
2022/04/12 12:12:09;;;;;;;7.80;4.45;;;19.50;45.50;;;;;;4540271;31;20193;-68
2022/04/12 12:14:36;;;;;;;6.47;4.25;;;19.50;45.40;;;;;;4533940;31;20155;-66
2022/04/12 12:17:10;;;;;;;9.70;4.07;;;19.50;45.40;;;;;;4541077;31;20064;-67
2022/04/12 12:19:40;;;;;;;5.63;3.90;;;19.50;45.90;;;;;;4533815;31;20099;-68
2022/04/12 12:22:08;;;;;;;8.43;3.88;;;19.50;46.00;;;;;;4540186;31;20397;-68
2022/04/12 12:24:37;;;;;;;8.30;3.88;;;19.50;46.20;;;;;;4539137;31;20084;-68
2022/04/12 12:27:05;;;;;;;6.50;4.03;;;19.50;46.40;;;;;;4540112;31;20535;-68
2022/04/12 12:29:36;;;;;;;8.73;4.20;;;19.50;46.50;;;;;;4538583;31;20165;-67
2022/04/12 12:32:02;;;;;;;5.30;3.80;;;19.50;46.60;;;;;;4523969;31;20594;-67
2022/04/12 12:34:29;;;;;;;5.88;3.67;;;19.50;46.60;;;;;;4539589;31;20080;-67
2022/04/12 12:36:55;;;;;;;5.63;3.40;;;19.50;46.60;;;;;;4536816;31;20169;-70
2022/04/12 12:39:21;;;;;;;7.82;3.80;;;19.50;46.70;;;;;;4523312;31;20172;-67
2022/04/12 12:41:47;;;;;;;8.93;3.85;;;19.50;46.80;;;;;;4540096;31;20577;-67
2022/04/12 12:44:13;;;;;;;6.30;3.65;;;19.50;46.80;;;;;;4540005;31;20137;-67
2022/04/12 12:46:39;;;;;;;4.40;3.30;;;19.50;46.80;;;;;;4525145;31;20076;-68
2022/04/12 12:49:05;;;;;;;5.18;3.83;;;19.50;46.90;;;;;;4539950;31;20542;-67
2022/04/12 12:51:31;;;;;;;6.55;3.33;;;19.50;46.90;;;;;;4525664;31;20128;-68
2022/04/12 12:54:01;;;;;;;6.90;4.07;;;19.50;47.00;;;;;;4525316;31;20082;-68